Terminal Aerodrome Forecast
Issued by NWS

Home | Current Version | Previous Version | Text Only | Print | Product List | Glossary On
Versions: 1 2 3 4 5 6 7 8 9 10 11 12 13 14 15 16 17 18 19 20 21 22 23 24 25 26 27 28 29 30 31 32 33 34 35 36 37 38 39 40 41 42 43 44 45 46 47 48 49 50
000
FTUS44 KHGX 060822 AAA
TAFIAH
TAF AMD
KIAH 060822Z 0608/0712 13004KT P6SM FEW045 SCT060 BKN090
     FM061100 13004KT P6SM VCTS SCT040CB BKN080
      TEMPO 0611/0613 6SM -SHRA BR BKN040 OVC080
     FM061500 26007KT P6SM BKN035
      TEMPO 0616/0620 30009G17KT
     FM062000 33011G19KT P6SM SCT040
     FM062300 36007KT P6SM FEW035=

USA.gov is the U.S. government's official web portal to all federal, state and local government web resources and services.